createdAt,value
2022-10-05T00:01:24.245Z,85.00
2022-10-05T00:05:20.209Z,84.90
2022-10-05T00:09:02.119Z,84.80
2022-10-05T00:12:48.375Z,85.00
2022-10-05T00:16:30.281Z,85.10
2022-10-05T00:20:22.570Z,85.00
2022-10-05T00:24:10.551Z,84.80
2022-10-05T00:28:00.503Z,84.90
2022-10-05T00:31:42.381Z,84.80
2022-10-05T00:35:24.541Z,84.80
2022-10-05T00:39:06.563Z,84.80
2022-10-05T00:43:10.264Z,84.90
2022-10-05T00:46:58.369Z,84.80
2022-10-05T00:50:43.373Z,85.00
2022-10-05T00:54:42.519Z,85.20
2022-10-05T00:58:49.869Z,85.30
2022-10-05T01:02:46.177Z,85.20
2022-10-05T01:06:50.965Z,85.40
2022-10-05T01:10:45.429Z,85.30
2022-10-05T01:14:47.904Z,85.70
2022-10-05T01:18:50.956Z,85.60
2022-10-05T01:23:06.929Z,85.70
2022-10-05T01:27:00.717Z,85.80
2022-10-05T01:30:52.018Z,86.30
2022-10-05T01:35:01.198Z,86.30
2022-10-05T01:38:59.778Z,86.30
2022-10-05T01:42:51.339Z,86.50
2022-10-05T01:46:39.072Z,86.70
2022-10-05T01:50:52.279Z,86.90
2022-10-05T01:54:45.204Z,86.70
2022-10-05T01:58:58.126Z,86.70
2022-10-05T02:02:54.980Z,86.70
2022-10-05T02:06:41.896Z,87.10
2022-10-05T02:10:37.473Z,87.00
2022-10-05T02:14:24.526Z,87.20
2022-10-05T02:18:18.071Z,87.20
2022-10-05T02:22:05.347Z,87.20
2022-10-05T02:25:49.531Z,87.30
2022-10-05T02:29:34.985Z,87.40
2022-10-05T02:33:29.967Z,87.50
2022-10-05T02:37:20.579Z,87.50
2022-10-05T02:41:29.642Z,87.80
2022-10-05T02:45:40.822Z,87.60
2022-10-05T02:49:49.046Z,87.60
2022-10-05T02:53:56.241Z,87.80
2022-10-05T02:57:53.192Z,87.80
2022-10-05T03:01:57.123Z,88.00
2022-10-05T03:05:53.265Z,88.00
2022-10-05T03:09:44.315Z,88.00
2022-10-05T03:13:54.848Z,88.10
2022-10-05T03:17:52.388Z,87.80
2022-10-05T03:22:16.927Z,88.00
2022-10-05T03:26:24.995Z,88.00
2022-10-05T03:30:13.001Z,88.10
2022-10-05T03:34:06.546Z,88.40
2022-10-05T03:38:14.403Z,88.50
2022-10-05T03:42:23.415Z,88.30
2022-10-05T03:46:27.974Z,88.20
2022-10-05T03:50:22.095Z,88.40
2022-10-05T03:54:19.638Z,88.60
2022-10-05T03:58:16.167Z,88.90
2022-10-05T04:02:06.684Z,89.00
2022-10-05T04:05:59.802Z,89.00
2022-10-05T04:09:45.690Z,89.00
2022-10-05T04:13:46.753Z,88.90
2022-10-05T04:17:33.533Z,89.00
2022-10-05T04:21:22.800Z,89.10
2022-10-05T04:25:17.905Z,88.50
2022-10-05T04:29:05.542Z,89.20
2022-10-05T04:32:54.137Z,89.40
2022-10-05T04:36:45.281Z,89.60
2022-10-05T04:41:05.371Z,89.90
2022-10-05T04:45:13.533Z,89.60
2022-10-05T04:48:58.159Z,89.80
2022-10-05T04:53:08.835Z,90.20
2022-10-05T04:56:58.529Z,90.10
2022-10-05T05:01:01.736Z,90.40
2022-10-05T05:04:55.617Z,90.50
2022-10-05T05:08:49.466Z,90.80
2022-10-05T05:12:41.594Z,91.00
2022-10-05T05:16:35.321Z,91.30
2022-10-05T05:20:59.825Z,91.60
2022-10-05T05:25:20.805Z,91.50
2022-10-05T05:29:26.201Z,91.70
2022-10-05T05:33:31.322Z,91.80
2022-10-05T05:38:00.717Z,92.00
2022-10-05T05:42:01.101Z,92.00
2022-10-05T05:46:02.918Z,92.30
2022-10-05T05:50:10.337Z,92.70
2022-10-05T05:54:14.584Z,92.90
2022-10-05T05:58:38.653Z,93.10
2022-10-05T06:02:26.497Z,92.90
2022-10-05T06:06:15.807Z,93.20
2022-10-05T06:10:05.670Z,93.10
2022-10-05T06:13:48.486Z,93.10
2022-10-05T06:17:58.051Z,93.00
2022-10-05T06:21:53.406Z,92.80
2022-10-05T06:25:55.592Z,92.90
2022-10-05T06:29:46.158Z,92.70
2022-10-05T06:34:03.117Z,92.70
2022-10-05T06:38:22.228Z,92.50
2022-10-05T06:42:42.019Z,92.40
2022-10-05T06:46:36.101Z,92.20
2022-10-05T06:50:26.883Z,92.30
2022-10-05T06:54:36.625Z,92.30
2022-10-05T06:58:44.611Z,92.30
2022-10-05T07:02:37.600Z,92.20
2022-10-05T07:06:34.250Z,92.10
2022-10-05T07:10:32.756Z,92.20
2022-10-05T07:14:14.719Z,91.70
2022-10-05T07:18:50.095Z,91.90
2022-10-05T07:22:40.491Z,91.70
2022-10-05T07:26:33.058Z,91.70
2022-10-05T07:30:16.166Z,91.60
2022-10-05T07:34:09.265Z,91.50
2022-10-05T07:37:55.617Z,91.40
2022-10-05T07:42:18.985Z,91.30
2022-10-05T07:46:11.232Z,91.10
2022-10-05T07:50:24.044Z,90.80
2022-10-05T07:54:15.676Z,90.80
2022-10-05T07:58:09.463Z,90.70
2022-10-05T08:01:59.663Z,90.50
2022-10-05T08:05:45.242Z,90.50
2022-10-05T08:09:38.973Z,90.30
2022-10-05T08:13:44.604Z,90.20
2022-10-05T08:17:38.733Z,90.10
2022-10-05T08:21:40.042Z,90.10
2022-10-05T08:25:59.118Z,89.90
2022-10-05T08:30:01.462Z,89.80
2022-10-05T08:34:02.959Z,89.60
2022-10-05T08:37:46.262Z,89.00
2022-10-05T08:41:46.830Z,88.10
2022-10-05T08:45:42.961Z,88.00
2022-10-05T08:49:49.453Z,88.00
2022-10-05T08:53:45.944Z,87.90
2022-10-05T08:57:39.743Z,87.30
2022-10-05T09:01:59.670Z,87.60
2022-10-05T09:06:14.616Z,86.20
2022-10-05T09:10:15.010Z,85.80
2022-10-05T09:14:15.750Z,85.80
2022-10-05T09:18:25.596Z,85.90
2022-10-05T09:22:35.389Z,85.80
2022-10-05T09:26:54.832Z,86.20
2022-10-05T09:30:39.606Z,86.80
2022-10-05T09:34:37.069Z,87.20
2022-10-05T09:38:50.379Z,88.10
2022-10-05T09:42:56.578Z,89.00
2022-10-05T09:47:09.140Z,89.70
2022-10-05T09:51:12.770Z,90.20
2022-10-05T09:55:05.530Z,90.50
2022-10-05T09:59:07.583Z,90.80
2022-10-05T10:03:28.889Z,91.10
2022-10-05T10:07:54.158Z,91.50
2022-10-05T10:11:55.979Z,92.00
2022-10-05T10:16:06.211Z,92.50
2022-10-05T10:20:06.745Z,92.90
2022-10-05T10:24:22.386Z,93.70
2022-10-05T10:28:26.238Z,93.40
2022-10-05T10:32:10.851Z,93.50
2022-10-05T10:36:18.867Z,94.00
2022-10-05T10:40:42.196Z,94.00
2022-10-05T10:44:44.322Z,94.20
2022-10-05T10:48:28.866Z,94.50
2022-10-05T10:52:47.706Z,94.90
2022-10-05T10:57:04.904Z,94.90
2022-10-05T11:01:04.834Z,95.10
2022-10-05T11:05:14.663Z,95.40
2022-10-05T11:09:28.990Z,95.50
2022-10-05T11:13:24.796Z,95.90
2022-10-05T11:17:25.537Z,94.40
2022-10-05T11:21:13.134Z,93.30
2022-10-05T11:25:27.735Z,92.50
2022-10-05T11:29:32.591Z,91.70
2022-10-05T11:33:29.762Z,91.60
2022-10-05T11:37:31.959Z,91.00
2022-10-05T11:41:13.735Z,91.20
2022-10-05T11:45:22.057Z,91.30
2022-10-05T11:49:15.582Z,91.50
2022-10-05T11:53:13.911Z,91.40
2022-10-05T11:57:24.233Z,91.40
2022-10-05T12:01:36.548Z,91.20
2022-10-05T12:05:39.756Z,90.50
2022-10-05T12:10:10.531Z,89.70
2022-10-05T12:14:00.507Z,90.10
2022-10-05T12:18:24.456Z,89.70
2022-10-05T12:22:18.161Z,90.20
2022-10-05T12:26:05.121Z,89.10
2022-10-05T12:30:11.154Z,88.70
2022-10-05T12:34:23.860Z,89.60
2022-10-05T12:38:18.074Z,89.30
2022-10-05T12:42:09.703Z,87.80
2022-10-05T12:46:00.744Z,87.00
2022-10-05T12:50:04.206Z,88.50
2022-10-05T12:54:19.299Z,88.30
2022-10-05T12:58:13.727Z,87.00
2022-10-05T13:01:58.416Z,85.20
2022-10-05T13:05:40.199Z,84.30
2022-10-05T13:09:40.029Z,82.00
2022-10-05T13:13:43.399Z,80.30
2022-10-05T13:17:46.175Z,81.40
2022-10-05T13:21:46.313Z,81.20
2022-10-05T13:25:37.388Z,82.70
2022-10-05T13:29:25.997Z,81.80
2022-10-05T13:33:18.108Z,83.40
2022-10-05T13:37:26.318Z,84.30
2022-10-05T13:41:25.910Z,82.50
2022-10-05T13:45:55.790Z,82.30
2022-10-05T13:49:44.442Z,83.30
2022-10-05T13:53:35.511Z,79.60
2022-10-05T13:57:48.040Z,78.70
2022-10-05T14:01:48.738Z,78.70
2022-10-05T14:05:31.808Z,79.40
2022-10-05T14:09:22.630Z,79.30
2022-10-05T14:13:46.790Z,78.10
2022-10-05T14:17:41.329Z,78.70
2022-10-05T14:21:26.089Z,75.20
2022-10-05T14:25:07.868Z,75.50
2022-10-05T14:29:16.744Z,74.90
2022-10-05T14:33:04.850Z,73.60
2022-10-05T14:36:55.076Z,73.20
2022-10-05T14:40:38.090Z,71.70
2022-10-05T14:48:19.816Z,63.30
2022-10-05T14:52:27.379Z,58.30
2022-10-05T14:56:24.263Z,59.30
2022-10-05T15:00:16.635Z,56.00
2022-10-05T15:04:07.759Z,55.90
2022-10-05T15:07:51.216Z,58.50
2022-10-05T15:11:58.249Z,59.70
2022-10-05T15:16:00.238Z,64.10
2022-10-05T15:20:17.955Z,67.00
2022-10-05T15:24:12.314Z,69.30
2022-10-05T15:28:30.324Z,69.00
2022-10-05T15:32:20.715Z,69.70
2022-10-05T15:36:17.692Z,69.80
2022-10-05T15:40:15.780Z,69.10
2022-10-05T15:44:35.432Z,67.70
2022-10-05T15:48:45.383Z,68.70
2022-10-05T15:52:43.838Z,68.70
2022-10-05T15:56:36.178Z,67.10
2022-10-05T16:00:20.815Z,66.70
2022-10-05T16:04:11.314Z,66.50
2022-10-05T16:08:12.723Z,68.80
2022-10-05T16:12:22.310Z,67.60
2022-10-05T16:16:33.908Z,69.30
2022-10-05T16:20:38.380Z,68.60
2022-10-05T16:24:53.578Z,69.00
2022-10-05T16:28:53.749Z,69.10
2022-10-05T16:32:50.002Z,69.20
2022-10-05T16:36:35.748Z,70.10
2022-10-05T16:40:31.160Z,69.20
2022-10-05T16:44:31.139Z,69.70
2022-10-05T16:48:25.865Z,68.40
2022-10-05T16:52:13.834Z,65.20
2022-10-05T16:56:01.846Z,63.30
2022-10-05T17:00:17.775Z,64.20
2022-10-05T17:04:28.781Z,65.20
2022-10-05T17:08:51.174Z,64.30
2022-10-05T17:12:40.026Z,66.10
2022-10-05T17:16:59.275Z,66.10
2022-10-05T17:21:28.587Z,68.00
2022-10-05T17:25:15.110Z,68.50
2022-10-05T17:28:59.676Z,68.10
2022-10-05T17:32:58.249Z,67.90
2022-10-05T17:36:44.037Z,69.40
2022-10-05T17:40:34.325Z,69.40
2022-10-05T17:44:19.520Z,70.10
2022-10-05T17:48:06.236Z,70.40
2022-10-05T17:52:06.797Z,70.70
2022-10-05T17:56:03.364Z,70.80
2022-10-05T17:59:57.067Z,71.20
2022-10-05T18:03:41.570Z,71.60
2022-10-05T18:07:24.695Z,71.60
2022-10-05T18:11:17.129Z,71.80
2022-10-05T18:15:01.855Z,71.60
2022-10-05T18:18:43.661Z,72.10
2022-10-05T18:22:27.859Z,72.30
2022-10-05T18:26:48.604Z,71.80
2022-10-05T18:30:53.182Z,71.80
2022-10-05T18:34:49.855Z,71.20
2022-10-05T18:39:01.465Z,70.20
2022-10-05T18:42:48.516Z,70.00
2022-10-05T18:46:37.266Z,69.90
2022-10-05T18:50:45.251Z,72.10
2022-10-05T18:55:00.240Z,70.50
2022-10-05T18:59:09.634Z,71.10
2022-10-05T19:03:04.013Z,71.10
2022-10-05T19:06:49.084Z,70.80
2022-10-05T19:10:39.955Z,71.00
2022-10-05T19:14:33.519Z,70.30
2022-10-05T19:18:24.445Z,70.90
2022-10-05T19:22:12.810Z,70.50
2022-10-05T19:25:59.689Z,70.30
2022-10-05T19:29:55.763Z,70.20
2022-10-05T19:33:46.220Z,70.60
2022-10-05T19:37:43.385Z,71.00
2022-10-05T19:41:35.080Z,71.40
2022-10-05T19:45:28.183Z,71.90
2022-10-05T19:49:13.455Z,72.30
2022-10-05T19:53:04.195Z,73.50
2022-10-05T19:56:52.812Z,74.90
2022-10-05T20:00:35.476Z,75.70
2022-10-05T20:04:38.181Z,75.80
2022-10-05T20:08:22.098Z,76.90
2022-10-05T20:12:04.239Z,76.50
2022-10-05T20:16:45.015Z,77.20
2022-10-05T20:20:45.785Z,77.20
2022-10-05T20:24:48.413Z,78.60
2022-10-05T20:28:31.819Z,79.40
2022-10-05T20:32:17.918Z,80.80
2022-10-05T20:36:00.315Z,80.90
2022-10-05T20:39:42.260Z,81.40
2022-10-05T20:43:24.162Z,81.80
2022-10-05T20:47:08.993Z,82.00
2022-10-05T20:50:50.937Z,82.30
2022-10-05T20:54:32.911Z,82.70
2022-10-05T20:58:14.786Z,83.30
2022-10-05T21:01:58.202Z,84.00
2022-10-05T21:05:39.994Z,83.70
2022-10-05T21:09:22.239Z,82.40
2022-10-05T21:13:04.181Z,83.20
2022-10-05T21:16:46.048Z,83.40
2022-10-05T21:20:27.911Z,83.90
2022-10-05T21:24:11.273Z,84.10
2022-10-05T21:27:54.162Z,84.50
2022-10-05T21:31:36.266Z,84.90
2022-10-05T21:35:18.233Z,85.00
2022-10-05T21:39:00.317Z,84.90
2022-10-05T21:42:42.206Z,85.20
2022-10-05T21:46:27.668Z,85.10
2022-10-05T21:50:10.282Z,85.50
2022-10-05T21:54:02.905Z,85.70
2022-10-05T21:57:46.098Z,85.80
2022-10-05T22:01:29.107Z,86.00
2022-10-05T22:05:11.031Z,86.20
2022-10-05T22:08:52.886Z,86.40
2022-10-05T22:12:34.740Z,86.80
2022-10-05T22:16:19.339Z,86.80
2022-10-05T22:20:01.916Z,86.80
2022-10-05T22:23:45.664Z,86.60
2022-10-05T22:27:29.484Z,86.70
2022-10-05T22:31:12.846Z,86.60
2022-10-05T22:34:54.720Z,86.70
2022-10-05T22:38:36.613Z,86.80
2022-10-05T22:42:18.520Z,86.80
2022-10-05T22:46:01.114Z,87.00
2022-10-05T22:49:43.052Z,87.20
2022-10-05T22:53:24.855Z,87.70
2022-10-05T22:57:06.862Z,87.70
2022-10-05T23:00:58.031Z,87.70
2022-10-05T23:04:40.914Z,87.90
2022-10-05T23:08:22.699Z,87.90
2022-10-05T23:12:04.623Z,88.00
2022-10-05T23:15:46.481Z,88.80
2022-10-05T23:19:28.283Z,88.90
2022-10-05T23:23:10.188Z,88.70
2022-10-05T23:26:52.017Z,88.60
2022-10-05T23:30:33.853Z,88.60
2022-10-05T23:34:15.686Z,88.70
2022-10-05T23:37:57.503Z,89.20
2022-10-05T23:41:39.798Z,89.20
2022-10-05T23:45:21.610Z,88.90
2022-10-05T23:49:03.604Z,88.80
2022-10-05T23:52:45.545Z,88.70
2022-10-05T23:56:27.376Z,88.50
